LEAS/OVD METAR and TAF weather

Enter ICAO airport designator
Station Type Date Time Source
LEAS METAR 2020/01/19 14:30 UTC NOAA

LEAS 191430Z 08012KT 040V110 9999 FEW032 10/02 Q1037 NOSIG


Station Type Date Time Source
LEAS Decoded METAR 2020/01/19 14:30 UTC NOAA

Asturias / Aviles, Spain (LEAS) 43-33N 006-02W 130M
Jan 19, 2020 - 09:30 AM EST / 2020.01.19 1430 UTC
Wind: from the E (080 degrees) at 14 MPH (12 KT) (direction variable):0
Visibility: greater than 7 mile(s):0
Sky conditions: mostly clear
Temperature: 50 F (10 C)
Dew Point: 35 F (2 C)
Relative Humidity: 57%
Pressure (altimeter): 30.62 in. Hg (1037 hPa)
ob: LEAS 191430Z 08012KT 040V110 9999 FEW032 10/02 Q1037 NOSIG
cycle: 14

Station Type Date Time Source
LEAS TAF 2020/01/19 15:27 UTC NOAA

TAF LEAS 191400Z 1915/2015 07009KT 9999 SCT030 TX12/1915Z TN06/2006Z
TEMPO 1915/2012 07015G30KT
TEMPO 1915/1918 SCT045TCU

Example: see airport list